• Join FlightAware (Why Join?)
  • Login
  • US Flag 
01:25PM EDT


 

Airport Tracker/Info


-or-


 

Live Flight TrackerFlight Track Log ✈ AWI3602 ✈ 2013년 Jul 2일 ✈ KAGS - KCLT

Flight Track Log - Related Links

Times and Time Zones

All times are in EDT time to prevent confusion due to time zone crossing. See the AWI3602 flight status page for this flight to view local times or setup timezone preferences in your user account.

Time Position Orientation Groundspeed Altitude Reporting Facility
EDT Latitude Longitude Course Direction KTS MPH feet Rate Location/Type
07:18AM 33.3361 -81.9603 352° North 150 173 1,900  Level Atlanta Center
07:19AM 33.3350 -82.0075 268° West 202 232 3,600 2,040 Climbing Atlanta Center
07:20AM 33.6393 -82.0118 346° North  Level FlightAware Approximate
07:20AM 33.3997 -82.0208 350° North 185 213 6,000  Level Atlanta Center
07:21AM 33.7292 -82.0387 346° North  Level FlightAware Approximate
07:21AM 33.4711 -82.0317 353° North 216 249 8,200  Level Atlanta Center
07:22AM 33.8201 -82.0589 352° North  Level FlightAware Approximate
07:22AM 33.5381 -82.0425 352° North 236 272 10,400  Level Atlanta Center
07:23AM 33.9119 -82.0742 352° North  Level FlightAware Approximate
07:23AM 33.6153 -82.0533 353° North 253 291 11,000  Level Atlanta Center
07:24AM 33.6969 -82.0664 352° North 280 322 11,000  Level Atlanta Center
07:25AM 33.7722 -82.0769 353° North 300 345 11,000  Level Atlanta Center
07:26AM 33.8581 -82.0925 351° North 306 352 11,000  Level Atlanta Center
07:27AM 33.9481 -82.1056 353° North 316 364 11,000  Level Atlanta Center
07:28AM 34.0358 -82.1186 353° North 316 364 11,000  Level Atlanta Center
07:29AM 34.1175 -82.1319 352° North 305 351 11,000  Level Atlanta Center
07:30AM 34.1969 -82.1450 352° North 292 336 11,000  Level Atlanta Center
07:31AM 34.2719 -82.1308 North 284 327 11,000 240 Level Atlanta Center
07:32AM 34.3272 -82.0592 47° Northeast 257 296 11,500 480 Climbing Atlanta Center
07:33AM 34.3844 -81.9872 46° Northeast 272 313 12,000 240 Climbing Atlanta Center
07:34AM 34.4289 -81.9006 58° Northeast 283 326 12,000  Level Atlanta Center
07:35AM 34.4625 -81.7992 68° East 304 350 12,000  Level Atlanta Center
07:36AM 34.4900 -81.7100 69° East 343 395 12,000  Level Atlanta Center
07:37AM 34.5697 -81.6222 42° Northeast 340 391 12,000  Level Atlanta Center
07:38AM 34.6503 -81.5769 25° Northeast 314 361 12,000  Level Atlanta Center
07:39AM 34.7556 -81.5183 25° Northeast 359 413 12,000  Level Atlanta Center
07:40AM 34.8083 -81.4483 47° Northeast 337 388 12,000  Level Atlanta Center
07:41AM 34.8814 -81.3575 46° Northeast 357 411 12,000  Level Atlanta Center
07:42AM 34.9483 -81.2639 49° Northeast 348 400 12,000  Level Atlanta Center
07:43AM 35.0072 -81.1936 44° Northeast 337 388 12,000 -660 Level Atlanta Center
07:44AM 35.0678 -81.1103 48° Northeast 315 362 10,700 -1,440 Descending Atlanta Center
07:45AM 35.1397 -81.0594 30° Northeast 289 333 9,000 -960 Descending Atlanta Center
07:46AM 35.2233 -81.0717 353° North 277 319 8,800 -780 Descending Atlanta Center
07:47AM 35.2967 -81.0794 355° North 255 293 7,400 -1,380 Descending Atlanta Center
07:48AM 35.3678 -81.0869 355° North 256 295 6,000 -1,380 Descending Atlanta Center
07:49AM 35.4389 -81.0919 357° North 254 292 4,600 -900 Descending Atlanta Center
07:50AM 35.4769 -81.0344 51° Northeast 200 230 4,200 -300 Descending Atlanta Center
07:51AM 35.4508 -80.9922 127° Southeast 158 182 4,000 -120 Descending Atlanta Center
07:52AM 35.4133 -80.9858 172° South 163 188 4,000  Level Atlanta Center